Time;durP1;ratioP1;P1;durP2;ratioP2;P2;SDS_P1;SDS_P2;PMS_P1;PMS_P2;Temp;Humidity;BMP_temperature;BMP_pressure;BME280_temperature;BME280_humidity;BME280_pressure;Samples;Min_cycle;Max_cycle;Signal;HPM_P1;HPM_P2
2022/07/30 00:00:58;;;;;;;0.77;0.20;;;;;;;16.34;100.00;100065.91;7396064;19;20048;-55
2022/07/30 00:03:25;;;;;;;1.95;0.45;;;;;;;16.38;100.00;100074.06;7392609;19;20027;-55
2022/07/30 00:05:51;;;;;;;0.45;0.45;;;;;;;16.38;100.00;100068.44;7393553;19;20070;-55
2022/07/30 00:08:17;;;;;;;0.77;0.10;;;;;;;16.37;100.00;100073.28;7391337;19;20014;-55
2022/07/30 00:10:43;;;;;;;1.83;0.20;;;;;;;16.35;100.00;100064.59;7392228;19;20018;-55
2022/07/30 00:13:10;;;;;;;3.75;0.30;;;;;;;16.36;100.00;100066.16;7393384;19;20017;-55
2022/07/30 00:15:36;;;;;;;3.20;0.20;;;;;;;16.36;100.00;100063.34;7394661;19;20014;-55
2022/07/30 00:18:03;;;;;;;0.90;0.32;;;;;;;16.37;100.00;100072.53;7393287;19;20044;-55
2022/07/30 00:20:29;;;;;;;0.88;0.17;;;;;;;16.35;100.00;100069.47;7392657;19;20541;-55
2022/07/30 00:22:55;;;;;;;0.82;0.20;;;;;;;16.36;100.00;100066.16;7392705;19;20010;-55
2022/07/30 00:25:22;;;;;;;0.10;0.10;;;;;;;16.37;100.00;100062.03;7393103;19;20021;-55
2022/07/30 00:27:48;;;;;;;3.03;1.45;;;;;;;16.39;100.00;100058.75;7395748;19;20014;-55
2022/07/30 00:30:15;;;;;;;0.22;0.17;;;;;;;16.40;100.00;100055.41;7394931;19;20030;-55
2022/07/30 00:32:42;;;;;;;0.60;0.35;;;;;;;16.41;100.00;100053.38;7391846;19;20015;-60
2022/07/30 00:35:09;;;;;;;0.22;0.20;;;;;;;16.41;100.00;100056.19;7392991;19;20062;-55
2022/07/30 00:37:35;;;;;;;2.20;0.52;;;;;;;16.39;100.00;100053.91;7394608;19;20022;-54
2022/07/30 00:40:02;;;;;;;0.20;0.17;;;;;;;16.40;100.00;100044.16;7391692;19;20466;-54
2022/07/30 00:42:43;;;;;;;0.90;0.30;;;;;;;16.39;100.00;100050.31;7391507;19;20459;-55
2022/07/30 00:45:12;;;;;;;1.50;0.40;;;;;;;16.40;100.00;100055.41;7391852;19;20010;-54
2022/07/30 00:47:39;;;;;;;3.03;0.70;;;;;;;16.40;100.00;100043.41;7395846;19;20010;-54
2022/07/30 00:50:08;;;;;;;1.65;0.30;;;;;;;16.42;100.00;100054.91;7395299;19;20078;-54
2022/07/30 00:52:37;;;;;;;1.00;0.40;;;;;;;16.42;100.00;100052.09;7391481;19;20017;-54
2022/07/30 00:55:05;;;;;;;1.02;0.50;;;;;;;16.43;100.00;100054.41;7389527;19;20025;-57
2022/07/30 00:57:32;;;;;;;4.68;0.65;;;;;;;16.42;100.00;100052.09;7394468;19;20014;-54
2022/07/30 00:59:58;;;;;;;2.30;0.55;;;;;;;16.38;100.00;100063.59;7392447;19;20035;-54
2022/07/30 01:02:24;;;;;;;0.88;0.40;;;;;;;16.39;100.00;100059.53;7389089;19;20078;-54
2022/07/30 01:04:50;;;;;;;1.15;0.20;;;;;;;16.38;100.00;100060.78;7388874;19;20014;-54
2022/07/30 01:07:16;;;;;;;2.78;0.65;;;;;;;16.36;100.00;100059.75;7393601;19;20756;-55
2022/07/30 01:09:43;;;;;;;0.55;0.25;;;;;;;16.33;100.00;100055.91;7387828;19;20032;-54
2022/07/30 01:12:12;;;;;;;0.47;0.10;;;;;;;16.28;100.00;100055.94;7389385;19;20403;-55
2022/07/30 01:14:38;;;;;;;3.33;0.73;;;;;;;16.30;100.00;100050.56;7390706;19;20031;-55
2022/07/30 01:17:05;;;;;;;1.00;0.40;;;;;;;16.21;100.00;100048.75;7393144;19;20014;-55
2022/07/30 01:19:54;;;;;;;1.67;0.30;;;;;;;16.23;100.00;100046.22;7390702;19;20006;-55
2022/07/30 01:22:29;;;;;;;12.25;0.47;;;;;;;16.23;100.00;100051.84;7392015;19;20018;-55
2022/07/30 01:25:29;;;;;;;1.63;0.68;;;;;;;16.20;100.00;100035.22;7390852;19;20015;-55
2022/07/30 01:28:03;;;;;;;0.55;0.50;;;;;;;16.16;100.00;100034.69;7388255;19;20014;-54
2022/07/30 01:30:33;;;;;;;1.35;0.20;;;;;;;16.14;100.00;100032.41;7388046;19;20034;-54
2022/07/30 01:33:02;;;;;;;0.50;0.50;;;;;;;16.12;100.00;100029.34;7391952;19;20040;-54
2022/07/30 01:35:31;;;;;;;0.50;0.20;;;;;;;16.10;100.00;100029.09;7392526;19;20021;-54
2022/07/30 01:37:59;;;;;;;1.50;0.25;;;;;;;16.13;100.00;100025.25;7388911;19;20034;-55
2022/07/30 01:40:27;;;;;;;0.68;0.20;;;;;;;16.13;100.00;100019.66;7386464;19;20022;-54
2022/07/30 01:42:57;;;;;;;11.80;0.52;;;;;;;16.14;100.00;100015.53;7388444;19;20010;-54
2022/07/30 01:45:27;;;;;;;1.00;0.65;;;;;;;16.14;100.00;100021.16;7388656;19;20010;-54
2022/07/30 01:47:59;;;;;;;0.32;0.25;;;;;;;16.14;100.00;100015.53;7393572;19;20021;-54
2022/07/30 01:50:26;;;;;;;0.80;0.10;;;;;;;16.14;100.00;100015.53;7387524;19;20463;-54
2022/07/30 01:52:55;;;;;;;0.47;0.20;;;;;;;16.16;100.00;100013.00;7387931;19;20039;-54
2022/07/30 01:55:29;;;;;;;0.40;0.20;;;;;;;16.17;100.00;100014.53;7386867;19;20010;-54
2022/07/30 01:57:57;;;;;;;1.00;0.20;;;;;;;16.17;100.00;100011.72;7387791;19;20015;-54
2022/07/30 02:00:29;;;;;;;3.00;0.30;;;;;;;16.16;100.00;100015.81;7390562;19;20459;-54
2022/07/30 02:02:57;;;;;;;1.03;0.23;;;;;;;16.14;100.00;100018.34;7391798;19;20562;-54
2022/07/30 02:05:23;;;;;;;1.27;0.22;;;;;;;16.17;100.00;100011.72;7389505;19;20018;-54
2022/07/30 02:08:00;;;;;;;1.75;0.47;;;;;;;16.16;100.00;100018.59;7393140;19;20339;-54
2022/07/30 02:10:42;;;;;;;1.45;0.45;;;;;;;16.17;100.00;100017.34;7386931;19;20007;-55
2022/07/30 02:13:21;;;;;;;0.52;0.30;;;;;;;16.19;100.00;100014.00;7386485;19;20039;-54
2022/07/30 02:15:57;;;;;;;1.58;0.47;;;;;;;16.18;100.00;100016.06;7386999;19;20018;-54
2022/07/30 02:18:39;;;;;;;2.40;0.50;;;;;;;16.19;100.00;100016.81;7387247;19;20022;-54
2022/07/30 02:21:08;;;;;;;3.00;0.55;;;;;;;16.14;100.00;100015.53;7389875;19;20015;-55
2022/07/30 02:23:42;;;;;;;3.40;0.85;;;;;;;16.13;100.00;100014.03;7391547;19;20509;-54
2022/07/30 02:26:14;;;;;;;1.95;0.57;;;;;;;16.11;100.00;100010.97;7388841;19;20017;-54
2022/07/30 02:28:44;;;;;;;2.30;0.40;;;;;;;16.08;100.00;100005.56;7390083;19;20015;-54
2022/07/30 02:31:11;;;;;;;5.50;0.70;;;;;;;16.05;100.00;100015.78;7386178;19;20082;-54
2022/07/30 02:33:41;;;;;;;0.65;0.52;;;;;;;16.01;100.00;99995.63;7382770;19;20375;-54
2022/07/30 02:36:09;;;;;;;0.85;0.50;;;;;;;16.03;100.00;100001.50;7390501;19;20018;-54
2022/07/30 02:38:38;;;;;;;2.65;0.85;;;;;;;16.00;100.00;99994.09;7388775;19;20083;-54
2022/07/30 02:41:07;;;;;;;0.90;0.73;;;;;;;15.98;100.00;99993.84;7387253;19;20014;-54
2022/07/30 02:43:38;;;;;;;0.30;0.30;;;;;;;15.98;100.00;99996.66;7386131;19;20006;-54
2022/07/30 02:46:06;;;;;;;0.93;0.50;;;;;;;15.95;100.00;99989.22;7383882;19;20019;-54
2022/07/30 02:48:54;;;;;;;1.05;0.45;;;;;;;15.90;100.00;99978.75;7388847;19;20377;-54
2022/07/30 02:51:23;;;;;;;0.60;0.30;;;;;;;15.87;100.00;99979.78;7387503;19;20011;-54
2022/07/30 02:53:52;;;;;;;2.22;1.00;;;;;;;15.87;100.00;99991.00;7390483;19;20478;-54
2022/07/30 02:56:21;;;;;;;1.83;0.63;;;;;;;15.84;100.00;100000.44;7391049;19;20031;-54
2022/07/30 02:58:48;;;;;;;0.47;0.30;;;;;;;15.84;100.00;99986.41;7389647;19;20017;-54
2022/07/30 03:01:18;;;;;;;5.97;0.47;;;;;;;15.84;100.00;99980.78;7394230;19;20367;-54
2022/07/30 03:03:46;;;;;;;3.10;0.70;;;;;;;15.83;100.00;99984.88;7388764;19;20019;-54
2022/07/30 03:06:17;;;;;;;0.32;0.25;;;;;;;15.79;100.00;99973.13;7396081;19;20447;-54
2022/07/30 03:08:44;;;;;;;;;;;;;;;15.76;100.00;99979.75;7398747;19;20021;-54
2022/07/30 03:11:12;;;;;;;7.63;1.13;;;;;;;15.75;100.00;99973.38;7398843;19;19922;-54
2022/07/30 03:13:39;;;;;;;0.22;0.20;;;;;;;15.78;100.00;99980.03;7396366;19;20459;-54
2022/07/30 03:16:08;;;;;;;1.08;0.50;;;;;;;15.75;100.00;99969.78;7394276;19;20018;-54
2022/07/30 03:18:37;;;;;;;1.90;0.73;;;;;;;15.76;100.00;99979.75;7392488;19;20032;-54
2022/07/30 03:21:06;;;;;;;0.85;0.52;;;;;;;15.77;100.00;99984.09;7393012;19;20022;-54
2022/07/30 03:23:36;;;;;;;0.20;0.10;;;;;;;15.76;100.00;99979.75;7395441;19;20010;-54
2022/07/30 03:26:05;;;;;;;0.90;0.35;;;;;;;15.79;100.00;99978.72;7398144;19;20006;-54
2022/07/30 03:28:35;;;;;;;0.50;0.30;;;;;;;15.82;100.00;99977.72;7391990;19;20027;-54
2022/07/30 03:31:02;;;;;;;1.38;0.68;;;;;;;15.83;100.00;99980.00;7392504;19;20341;-54
2022/07/30 03:33:30;;;;;;;1.70;0.40;;;;;;;15.83;100.00;99974.41;7392629;19;20740;-54
2022/07/30 03:35:58;;;;;;;0.90;0.43;;;;;;;15.82;100.00;99983.34;7393844;19;20463;-54
2022/07/30 03:38:25;;;;;;;1.35;0.45;;;;;;;15.83;100.00;99982.06;7391897;19;20014;-54
2022/07/30 03:40:54;;;;;;;2.38;0.20;;;;;;;15.81;100.00;99978.97;7393411;19;20791;-54
2022/07/30 03:43:21;;;;;;;0.50;0.20;;;;;;;15.81;100.00;99971.34;7392031;19;20389;-54
2022/07/30 03:45:49;;;;;;;1.75;0.50;;;;;;;15.80;100.00;99975.44;7390991;19;20016;-54
2022/07/30 03:48:18;;;;;;;0.20;0.10;;;;;;;15.81;100.00;99976.19;7395217;19;20014;-54
2022/07/30 03:50:47;;;;;;;1.38;0.30;;;;;;;15.80;100.00;99980.28;7389954;19;20368;-54
2022/07/30 03:53:14;;;;;;;1.85;0.38;;;;;;;15.80;100.00;99975.44;7392999;19;20010;-54
2022/07/30 03:56:03;;;;;;;1.10;0.50;;;;;;;15.78;100.00;99969.56;7392126;19;20070;-54
2022/07/30 03:58:49;;;;;;;1.85;0.60;;;;;;;15.76;100.00;99963.69;7391684;19;20017;-54
2022/07/30 04:01:16;;;;;;;0.43;0.10;;;;;;;15.76;100.00;99968.53;7392104;19;20006;-54
2022/07/30 04:03:43;;;;;;;0.52;0.40;;;;;;;15.76;100.00;99962.91;7392308;19;20019;-54
2022/07/30 04:06:09;;;;;;;2.10;0.55;;;;;;;15.77;100.00;99956.78;7392326;19;20037;-54
2022/07/30 04:08:35;;;;;;;0.20;0.17;;;;;;;15.80;100.00;99963.44;7390804;19;20007;-54
2022/07/30 04:11:02;;;;;;;0.10;0.10;;;;;;;15.83;100.00;99959.63;7389413;19;20456;-54
2022/07/30 04:13:45;;;;;;;1.70;0.32;;;;;;;15.84;100.00;99963.94;7390116;19;20018;-54
2022/07/30 04:16:41;;;;;;;3.95;0.60;;;;;;;15.83;100.00;99963.16;7391038;19;20022;-54
2022/07/30 04:19:16;;;;;;;2.72;0.40;;;;;;;15.85;100.00;99965.47;7390899;19;20474;-54
2022/07/30 04:21:45;;;;;;;0.30;0.20;;;;;;;15.86;100.00;99967.78;7395162;19;20098;-54
2022/07/30 04:24:12;;;;;;;0.40;0.15;;;;;;;15.88;100.00;99962.41;7389586;19;20026;-54
2022/07/30 04:26:39;;;;;;;2.03;0.20;;;;;;;15.90;100.00;99961.91;7392425;19;20010;-54
2022/07/30 04:29:08;;;;;;;0.17;0.10;;;;;;;15.89;100.00;99960.38;7392767;19;20020;-55
2022/07/30 04:31:34;;;;;;;0.80;0.55;;;;;;;15.91;100.00;99963.44;7389091;19;20479;-54
2022/07/30 04:34:14;;;;;;;2.55;0.20;;;;;;;15.91;100.00;99963.44;7394056;19;20570;-54
2022/07/30 04:36:41;;;;;;;0.50;0.33;;;;;;;15.91;100.00;99960.63;7392350;19;20360;-54
2022/07/30 04:39:08;;;;;;;0.70;0.20;;;;;;;15.92;100.00;99964.97;7389210;19;20074;-55
2022/07/30 04:41:35;;;;;;;0.20;0.10;;;;;;;15.92;100.00;99970.56;7390352;19;20014;-54
2022/07/30 04:44:24;;;;;;;0.10;0.10;;;;;;;15.93;100.00;99963.69;7390125;19;20097;-54
2022/07/30 04:47:10;;;;;;;0.47;0.15;;;;;;;15.92;100.00;99951.69;7395086;19;20019;-54
2022/07/30 04:49:48;;;;;;;0.57;0.10;;;;;;;15.97;100.00;99955.00;7389272;19;20011;-54
2022/07/30 04:52:17;;;;;;;0.25;0.22;;;;;;;16.01;100.00;99956.28;7389745;19;20127;-54
2022/07/30 04:54:50;;;;;;;1.27;0.50;;;;;;;16.02;100.00;99957.06;7393506;19;20006;-54
2022/07/30 04:57:18;;;;;;;0.45;0.22;;;;;;;16.03;100.00;99952.97;7393040;19;20031;-54
2022/07/30 04:59:45;;;;;;;0.63;0.25;;;;;;;16.05;100.00;99959.59;7391888;19;20035;-55
2022/07/30 05:02:14;;;;;;;0.90;0.43;;;;;;;16.04;100.00;99949.66;7390610;19;20011;-54
2022/07/30 05:04:41;;;;;;;1.23;0.40;;;;;;;16.07;100.00;99954.22;7394899;19;20045;-54
2022/07/30 05:07:08;;;;;;;2.08;0.80;;;;;;;16.09;100.00;99968.53;7392869;19;20015;-54
2022/07/30 05:09:35;;;;;;;0.95;0.30;;;;;;;16.13;100.00;99959.88;7389095;19;20019;-54
2022/07/30 05:12:01;;;;;;;0.63;0.30;;;;;;;16.14;100.00;99958.56;7389001;19;20025;-54
2022/07/30 05:14:29;;;;;;;0.20;0.10;;;;;;;16.17;100.00;99958.34;7388769;19;20014;-54
2022/07/30 05:16:55;;;;;;;0.90;0.13;;;;;;;16.17;100.00;99961.16;7392114;19;20026;-54
2022/07/30 05:19:22;;;;;;;3.20;0.50;;;;;;;16.20;100.00;99962.19;7388732;19;20015;-54
2022/07/30 05:21:48;;;;;;;1.75;0.75;;;;;;;16.24;100.00;99963.41;7388910;19;20018;-54
2022/07/30 05:24:14;;;;;;;5.97;0.28;;;;;;;16.25;100.00;99964.97;7393281;19;20080;-54
2022/07/30 05:26:48;;;;;;;0.95;0.47;;;;;;;16.31;100.00;99968.53;7391116;19;20202;-54
2022/07/30 05:29:17;;;;;;;0.20;0.20;;;;;;;16.38;100.00;99968.03;7388760;19;20011;-54
2022/07/30 05:31:50;;;;;;;0.15;0.13;;;;;;;16.38;100.00;99970.06;7387221;19;20006;-54
2022/07/30 05:34:17;;;;;;;0.20;0.10;;;;;;;16.38;100.00;99962.41;7387282;19;20370;-55
2022/07/30 05:36:44;;;;;;;0.77;0.20;;;;;;;16.40;100.00;99965.47;7389209;19;20010;-55
2022/07/30 05:39:13;;;;;;;2.45;0.32;;;;;;;16.41;100.00;99958.56;7389565;19;20006;-55
2022/07/30 05:41:52;;;;;;;0.47;0.30;;;;;;;16.46;100.00;99963.41;7390033;19;20018;-55
2022/07/30 05:44:27;;;;;;;0.90;0.20;;;;;;;16.52;100.00;99967.00;7390397;19;20010;-55
2022/07/30 05:46:54;;;;;;;0.30;0.30;;;;;;;16.54;100.00;99972.91;7390105;19;20014;-55
2022/07/30 05:49:20;;;;;;;0.45;0.38;;;;;;;16.62;100.00;99971.09;7391198;19;20017;-55
2022/07/30 05:51:47;;;;;;;0.88;0.13;;;;;;;16.71;100.00;99958.03;7388574;19;20030;-55
2022/07/30 05:54:13;;;;;;;1.10;0.45;;;;;;;16.76;100.00;99957.25;7391245;19;20027;-55
2022/07/30 05:57:05;;;;;;;1.80;0.30;;;;;;;16.81;100.00;99956.44;7390519;19;20463;-55
2022/07/30 05:59:33;;;;;;;0.98;0.40;;;;;;;16.84;100.00;99953.38;7389620;19;20017;-55
2022/07/30 06:02:09;;;;;;;1.77;0.20;;;;;;;16.92;100.00;99950.78;7389815;19;20011;-56
2022/07/30 06:04:58;;;;;;;5.82;0.32;;;;;;;16.97;100.00;99956.41;7389390;19;20014;-56
2022/07/30 06:07:25;;;;;;;3.35;0.57;;;;;;;17.01;100.00;99956.13;7388274;19;20007;-56
2022/07/30 06:09:58;;;;;;;0.25;0.25;;;;;;;17.05;100.00;99960.22;7389175;19;20041;-56
2022/07/30 06:12:29;;;;;;;3.20;0.88;;;;;;;17.08;100.00;99949.97;7391248;19;20014;-56
2022/07/30 06:14:56;;;;;;;0.50;0.50;;;;;;;17.15;100.00;99955.06;7390161;19;20463;-56
2022/07/30 06:17:28;;;;;;;0.50;0.15;;;;;;;17.18;100.00;99946.34;7389428;19;20066;-56
2022/07/30 06:20:20;;;;;;;2.25;0.45;;;;;;;17.25;100.00;99957.06;7389846;19;20074;-56
2022/07/30 06:23:16;;;;;;;0.25;0.20;;;;;;;17.33;100.00;99948.81;7389882;19;20006;-56
2022/07/30 06:25:59;;;;;;;0.40;0.28;;;;;;;17.38;100.00;99950.84;7389403;19;20467;-56
2022/07/30 06:28:25;;;;;;;1.13;0.30;;;;;;;17.36;100.00;99942.94;7390419;19;20003;-56
2022/07/30 06:30:51;;;;;;;1.58;0.30;;;;;;;17.39;100.00;99952.38;7388373;19;19998;-56
2022/07/30 06:33:19;;;;;;;0.30;0.13;;;;;;;17.38;100.00;99954.44;7389218;19;20088;-56
2022/07/30 06:35:53;;;;;;;2.90;0.50;;;;;;;17.44;100.00;99954.38;7387740;19;20024;-56
2022/07/30 06:38:23;;;;;;;0.65;0.32;;;;;;;17.50;100.00;99952.34;7389725;19;20006;-56
2022/07/30 06:41:02;;;;;;;1.95;0.63;;;;;;;17.58;100.00;99953.34;7397908;19;20015;-56
2022/07/30 06:43:54;;;;;;;1.30;0.50;;;;;;;17.68;100.00;99951.72;7397581;19;20047;-56
2022/07/30 06:46:40;;;;;;;0.70;0.45;;;;;;;17.75;100.00;99956.03;7398306;19;20011;-56
2022/07/30 06:49:06;;;;;;;1.42;0.50;;;;;;;17.81;100.00;99951.88;7395697;19;20078;-56
2022/07/30 06:51:32;;;;;;;4.10;0.30;;;;;;;17.81;100.00;99954.69;7392164;19;20035;-56
2022/07/30 06:53:59;;;;;;;1.05;0.25;;;;;;;17.80;100.00;99953.16;7395594;19;20368;-56
2022/07/30 06:56:37;;;;;;;1.17;0.50;;;;;;;17.83;100.00;99946.50;7399039;19;20021;-56
2022/07/30 06:59:06;;;;;;;0.95;0.10;;;;;;;17.87;100.00;99952.59;7395080;19;20497;-56
2022/07/30 07:01:52;;;;;;;0.40;0.20;;;;;;;17.87;100.00;99946.97;7398141;19;20014;-55
2022/07/30 07:04:20;;;;;;;1.35;0.25;;;;;;;17.89;100.00;99930.31;7395340;19;20451;-56
2022/07/30 07:06:46;;;;;;;0.73;0.25;;;;;;;17.94;100.00;99935.13;7396147;19;20018;-56
2022/07/30 07:09:16;;;;;;;;;;;;;;;18.02;100.00;99927.63;7396116;19;20772;-55
2022/07/30 07:11:49;;;;;;;0.70;0.17;;;;;;;18.07;100.00;99934.50;7392931;19;20268;-55
2022/07/30 07:14:18;;;;;;;0.90;0.22;;;;;;;18.10;100.00;99934.22;7395814;19;20024;-55
2022/07/30 07:16:44;;;;;;;1.63;0.20;;;;;;;18.12;100.00;99931.66;7397441;19;20467;-56
2022/07/30 07:19:29;;;;;;;1.90;0.57;;;;;;;18.22;100.00;99937.72;7396835;19;20006;-55
2022/07/30 07:21:55;;;;;;;0.73;0.43;;;;;;;18.25;100.00;99935.91;7395545;19;20359;-55
2022/07/30 07:24:22;;;;;;;0.10;0.10;;;;;;;18.35;100.00;99934.25;7395736;19;20066;-55
2022/07/30 07:26:54;;;;;;;6.13;0.55;;;;;;;18.46;100.00;99934.19;7394277;19;20010;-55
2022/07/30 07:29:20;;;;;;;0.52;0.10;;;;;;;18.45;100.00;99939.06;7394366;19;20011;-55
2022/07/30 07:31:47;;;;;;;0.10;0.10;;;;;;;18.46;100.00;99942.63;7391846;19;20003;-55
2022/07/30 07:34:13;;;;;;;0.60;0.10;;;;;;;18.48;100.00;99938.00;7394021;19;20006;-56
2022/07/30 07:36:39;;;;;;;0.68;0.20;;;;;;;18.50;100.00;99940.28;7393974;19;20010;-55
2022/07/30 07:39:08;;;;;;;1.70;0.40;;;;;;;18.54;100.00;99940.75;7393760;19;20034;-56
2022/07/30 07:41:36;;;;;;;7.68;0.45;;;;;;;18.55;100.00;99942.28;7394771;19;20104;-56
2022/07/30 07:44:04;;;;;;;0.40;0.10;;;;;;;18.62;100.00;99936.06;7393816;19;20474;-55
2022/07/30 07:46:32;;;;;;;0.40;0.30;;;;;;;18.71;100.00;99932.91;7395197;19;20073;-55
2022/07/30 07:49:00;;;;;;;2.42;0.50;;;;;;;18.81;100.00;99937.66;7393814;19;20035;-55
2022/07/30 07:51:46;;;;;;;0.93;0.28;;;;;;;18.94;100.00;99925.69;7391193;19;20081;-55
2022/07/30 07:54:15;;;;;;;2.08;0.30;;;;;;;19.02;100.00;99935.09;7394536;19;20006;-55
2022/07/30 07:56:41;;;;;;;1.58;0.55;;;;;;;19.05;100.00;99934.03;7393606;19;20010;-55
2022/07/30 07:59:10;;;;;;;3.95;0.60;;;;;;;19.15;100.00;99929.53;7394155;19;20010;-55
2022/07/30 08:01:36;;;;;;;0.35;0.35;;;;;;;19.27;100.00;99928.09;7396250;19;20342;-55
2022/07/30 08:04:20;;;;;;;1.40;0.20;;;;;;;19.48;100.00;99937.59;7395983;19;20024;-55
2022/07/30 08:07:05;;;;;;;7.32;0.57;;;;;;;19.66;100.00;99925.50;7395428;19;20066;-55
2022/07/30 08:09:54;;;;;;;0.65;0.25;;;;;;;19.68;100.00;99920.06;7390109;19;20019;-55
2022/07/30 08:12:39;;;;;;;0.63;0.40;;;;;;;19.76;100.00;99922.28;7390069;19;20459;-55
2022/07/30 08:15:26;;;;;;;2.88;0.70;;;;;;;19.80;100.00;99925.53;7390246;19;20018;-55
2022/07/30 08:18:07;;;;;;;1.17;0.28;;;;;;;19.75;100.00;99926.41;7392612;19;20114;-55
2022/07/30 08:20:52;;;;;;;4.05;0.43;;;;;;;19.75;100.00;99920.75;7397316;19;20010;-55
2022/07/30 08:23:24;;;;;;;1.05;0.30;;;;;;;19.82;100.00;99920.13;7389727;19;20033;-55
2022/07/30 08:25:50;;;;;;;1.13;0.47;;;;;;;19.84;100.00;99917.53;7390433;19;20027;-55
2022/07/30 08:28:16;;;;;;;1.20;0.10;;;;;;;19.92;100.00;99924.09;7390961;19;20046;-55
2022/07/30 08:30:43;;;;;;;1.25;0.30;;;;;;;20.09;100.00;99918.91;7389709;19;20006;-55
2022/07/30 08:33:09;;;;;;;0.20;0.13;;;;;;;20.13;100.00;99916.53;7392211;19;20015;-55
2022/07/30 08:35:35;;;;;;;1.02;0.20;;;;;;;20.13;100.00;99919.34;7394048;19;20018;-55
2022/07/30 08:38:02;;;;;;;1.95;0.10;;;;;;;20.24;100.00;99922.03;7394323;19;20122;-55
2022/07/30 08:40:32;;;;;;;0.30;0.10;;;;;;;20.43;100.00;99919.88;7390252;19;20108;-55
2022/07/30 08:43:04;;;;;;;0.57;0.15;;;;;;;20.56;100.00;99919.88;7394729;19;20078;-55
2022/07/30 08:45:31;;;;;;;5.72;0.20;;;;;;;20.58;100.00;99917.28;7389430;19;20018;-55
2022/07/30 08:48:06;;;;;;;0.30;0.20;;;;;;;20.62;100.00;99917.69;7388980;19;20018;-55
2022/07/30 08:50:43;;;;;;;4.47;0.52;;;;;;;20.62;100.00;99919.78;7387907;19;20022;-55
2022/07/30 08:53:45;;;;;;;5.03;0.85;;;;;;;20.59;100.00;99915.97;7386861;19;20102;-55
2022/07/30 08:56:12;;;;;;;7.00;1.20;;;;;;;20.60;100.00;99919.53;7390739;19;20057;-55
2022/07/30 08:58:40;;;;;;;2.05;0.63;;;;;;;20.57;100.00;99921.41;7391254;19;20014;-55
2022/07/30 09:01:08;;;;;;;2.63;0.22;;;;;;;20.55;100.00;99928.91;7393921;19;20007;-55
2022/07/30 09:03:36;;;;;;;8.85;1.27;;;;;;;20.59;100.00;99923.69;7391130;19;20010;-54
2022/07/30 09:06:03;;;;;;;8.45;1.30;;;;;;;20.61;100.00;99923.91;7392790;19;20109;-55
2022/07/30 09:08:30;;;;;;;4.00;1.55;;;;;;;20.61;100.00;99921.09;7391140;19;20455;-55
2022/07/30 09:10:58;;;;;;;4.93;0.98;;;;;;;20.58;100.00;99939.13;7387585;19;20011;-54
2022/07/30 09:13:36;;;;;;;2.10;0.57;;;;;;;20.56;100.00;99928.38;7389808;19;20018;-54
2022/07/30 09:16:04;;;;;;;3.28;0.98;;;;;;;20.53;100.00;99929.44;7389192;19;20006;-53
2022/07/30 09:18:37;;;;;;;7.40;1.05;;;;;;;20.45;100.00;99925.75;7388467;19;20010;-54
2022/07/30 09:21:23;;;;;;;2.13;0.68;;;;;;;20.40;100.00;99929.44;7391644;19;20121;-54
2022/07/30 09:24:00;;;;;;;2.50;0.22;;;;;;;20.31;100.00;99939.09;7392929;19;20007;-54
2022/07/30 09:26:57;;;;;;;1.77;0.30;;;;;;;20.31;100.00;99944.00;7392501;19;20014;-54
2022/07/30 09:29:46;;;;;;;1.95;0.38;;;;;;;20.25;100.00;99940.50;7388685;19;20015;-54
2022/07/30 09:32:50;;;;;;;2.25;0.50;;;;;;;20.22;100.00;99955.75;7390231;19;20074;-54
2022/07/30 09:35:55;;;;;;;0.20;0.10;;;;;;;20.22;100.00;99950.09;7389110;19;20022;-54
2022/07/30 09:38:51;;;;;;;4.68;0.30;;;;;;;20.35;100.00;99938.78;7386516;19;20014;-54
2022/07/30 09:41:46;;;;;;;4.03;0.43;;;;;;;20.53;100.00;99937.94;7391198;19;20670;-54
2022/07/30 09:44:23;;;;;;;0.10;0.10;;;;;;;20.57;100.00;99948.94;7386317;19;20571;-54
2022/07/30 09:46:52;;;;;;;2.45;0.47;;;;;;;20.58;100.00;99939.91;7389383;19;20019;-54
2022/07/30 09:49:30;;;;;;;1.75;0.20;;;;;;;20.57;100.00;99938.41;7386382;19;20013;-54
2022/07/30 09:51:56;;;;;;;2.40;0.30;;;;;;;20.55;100.00;99938.19;7385027;19;20082;-54
2022/07/30 09:54:24;;;;;;;2.55;0.30;;;;;;;20.49;100.00;99939.59;7387312;19;20015;-54
2022/07/30 09:57:09;;;;;;;0.65;0.10;;;;;;;20.43;100.00;99934.00;7390425;19;20019;-54
2022/07/30 09:59:35;;;;;;;5.25;0.57;;;;;;;20.44;100.00;99935.56;7388887;19;20014;-54
2022/07/30 10:02:03;;;;;;;1.85;0.20;;;;;;;20.43;100.00;99936.84;7392100;19;20332;-54
2022/07/30 10:04:48;;;;;;;4.78;0.82;;;;;;;20.46;100.00;99938.59;7389559;19;20022;-54
2022/07/30 10:07:19;;;;;;;1.30;0.38;;;;;;;20.43;100.00;99939.66;7390706;19;20023;-54
2022/07/30 10:09:47;;;;;;;1.60;0.75;;;;;;;20.45;100.00;99942.72;7388736;19;20376;-54
2022/07/30 10:12:15;;;;;;;1.25;0.15;;;;;;;20.45;100.00;99954.03;7387694;19;20006;-54
2022/07/30 10:14:46;;;;;;;5.60;0.43;;;;;;;20.48;100.00;99949.38;7392630;19;20014;-54
2022/07/30 10:17:14;;;;;;;1.05;0.35;;;;;;;20.57;100.00;99944.06;7397614;19;20014;-54
2022/07/30 10:19:43;;;;;;;0.40;0.20;;;;;;;20.69;100.00;99945.38;7394644;19;20398;-54
2022/07/30 10:22:29;;;;;;;0.55;0.20;;;;;;;20.82;100.00;99947.44;7396805;19;20023;-54
2022/07/30 10:25:23;;;;;;;4.32;0.22;;;;;;;20.79;100.00;99946.44;7396196;19;20436;-54
2022/07/30 10:28:16;;;;;;;0.55;0.10;;;;;;;20.86;100.00;99937.31;7393790;19;20045;-54
2022/07/30 10:30:44;;;;;;;4.15;0.22;;;;;;;20.91;100.00;99938.50;7395993;19;20019;-54
2022/07/30 10:33:11;;;;;;;3.10;0.40;;;;;;;20.91;100.00;99938.50;7399440;19;20035;-55
2022/07/30 10:35:37;;;;;;;0.10;0.10;;;;;;;20.90;100.00;99943.41;7395870;19;20042;-55
2022/07/30 10:38:08;;;;;;;5.28;0.50;;;;;;;20.88;100.00;99940.34;7394406;19;20092;-54
2022/07/30 10:40:45;;;;;;;0.35;0.17;;;;;;;20.84;100.00;99939.91;7396477;19;20010;-54
2022/07/30 10:43:29;;;;;;;0.13;0.10;;;;;;;20.83;100.00;99941.25;7396382;19;20018;-54
2022/07/30 10:46:01;;;;;;;0.40;0.10;;;;;;;20.92;100.00;99940.03;7397400;19;20019;-54
2022/07/30 10:48:31;;;;;;;0.30;0.00;;;;;;;20.96;100.00;99941.22;7398470;19;20563;-54
2022/07/30 10:50:58;;;;;;;0.28;0.10;;;;;;;20.98;100.00;99944.28;7392599;19;20362;-54
2022/07/30 10:53:46;;;;;;;0.65;0.20;;;;;;;20.99;100.00;99940.13;7395565;19;20018;-54
2022/07/30 10:56:22;;;;;;;0.10;0.00;;;;;;;20.92;100.00;99940.78;7396949;19;20025;-54
2022/07/30 10:59:03;;;;;;;0.40;0.00;;;;;;;21.01;100.00;99939.56;7395713;19;20078;-54
2022/07/30 11:01:47;;;;;;;0.10;0.00;;;;;;;21.11;100.00;99937.88;7395166;19;20010;-54
2022/07/30 11:04:22;;;;;;;1.10;0.00;;;;;;;21.21;100.00;99941.78;7395340;19;20035;-54
2022/07/30 11:06:49;;;;;;;0.00;0.00;;;;;;;21.27;100.00;99947.34;7398771;19;20011;-54
2022/07/30 11:09:36;;;;;;;0.10;0.10;;;;;;;21.27;100.00;99948.06;7393299;19;20014;-54
2022/07/30 11:12:03;;;;;;;0.13;0.13;;;;;;;21.40;100.00;99944.44;7392459;19;20010;-55
2022/07/30 11:14:47;;;;;;;0.10;0.00;;;;;;;21.58;100.00;99943.53;7394132;19;20011;-55
2022/07/30 11:17:17;;;;;;;0.65;0.13;;;;;;;21.54;100.00;99948.78;7398020;19;20494;-54
2022/07/30 11:20:05;;;;;;;0.10;0.00;;;;;;;21.52;100.00;99951.41;7394278;19;20030;-54
2022/07/30 11:22:40;;;;;;;0.10;0.00;;;;;;;21.65;100.00;99945.69;7393472;19;20474;-53
2022/07/30 11:25:26;;;;;;;0.40;0.00;;;;;;;21.76;100.00;99949.03;7391115;19;20113;-53
2022/07/30 11:27:52;;;;;;;0.10;0.10;;;;;;;21.89;100.00;99946.16;7393999;19;20102;-54
2022/07/30 11:30:18;;;;;;;0.10;0.00;;;;;;;22.02;100.00;99942.53;7393039;19;20018;-54
2022/07/30 11:32:47;;;;;;;0.30;0.10;;;;;;;22.04;100.00;99944.78;7397701;19;20024;-54
2022/07/30 11:35:26;;;;;;;0.32;0.00;;;;;;;22.14;100.00;99940.91;7395419;19;20017;-54
2022/07/30 11:38:02;;;;;;;0.10;0.10;;;;;;;22.38;100.00;99942.63;7395503;19;20018;-54
2022/07/30 11:40:32;;;;;;;0.13;0.10;;;;;;;22.61;100.00;99935.84;7393704;19;20275;-53
2022/07/30 11:43:14;;;;;;;0.00;0.00;;;;;;;22.77;100.00;99939.53;7393606;19;20025;-54
2022/07/30 11:45:42;;;;;;;0.30;0.10;;;;;;;22.88;100.00;99942.06;7392385;19;20015;-55
2022/07/30 11:48:11;;;;;;;0.10;0.10;;;;;;;22.86;100.00;99944.72;7393017;19;20024;-55